Time;durP1;ratioP1;P1;durP2;ratioP2;P2;SDS_P1;SDS_P2;PMS_P1;PMS_P2;Temp;Humidity;BMP_temperature;BMP_pressure;BME280_temperature;BME280_humidity;BME280_pressure;Samples;Min_cycle;Max_cycle;Signal;HPM_P1;HPM_P2
2023/11/28 00:01:55;;;;;;;5.83;3.73;;;;;;;;;;5091491;28;20229;-81
2023/11/28 00:04:23;;;;;;;6.80;4.80;;;;;;;;;;5090930;28;20292;-80
2023/11/28 00:06:53;;;;;;;6.43;4.10;;;;;;;;;;5091940;28;20194;-80
2023/11/28 00:09:21;;;;;;;8.87;4.60;;;;;;;;;;5091626;28;20702;-80
2023/11/28 00:11:48;;;;;;;5.40;3.73;;;;;;;;;;5091036;28;20204;-80
2023/11/28 00:14:17;;;;;;;8.20;4.27;;;;;;;;;;5091284;28;20741;-80
2023/11/28 00:16:44;;;;;;;7.13;4.17;;;;;;;;;;5091961;28;20679;-80
2023/11/28 00:19:11;;;;;;;5.63;3.60;;;;;;;;;;5091255;28;20712;-80
2023/11/28 00:21:39;;;;;;;6.30;3.70;;;;;;;;;;5090909;28;20224;-80
2023/11/28 00:24:07;;;;;;;5.00;4.03;;;;;;;;;;5091162;28;20543;-79
2023/11/28 00:26:34;;;;;;;7.03;3.90;;;;;;;;;;5091325;28;20197;-80
2023/11/28 00:29:02;;;;;;;8.40;3.87;;;;;;;;;;5091009;28;20226;-80
2023/11/28 00:31:30;;;;;;;6.73;3.60;;;;;;;;;;5091411;28;20583;-80
2023/11/28 00:33:57;;;;;;;8.87;3.70;;;;;;;;;;5091383;28;20206;-80
2023/11/28 00:36:24;;;;;;;4.83;3.40;;;;;;;;;;5091354;28;20285;-80
2023/11/28 00:38:52;;;;;;;5.50;3.40;;;;;;;;;;5091213;28;20198;-80
2023/11/28 00:41:19;;;;;;;4.20;2.90;;;;;;;;;;5091050;28;20280;-80
2023/11/28 00:43:46;;;;;;;5.87;3.30;;;;;;;;;;5091033;28;20194;-79
2023/11/28 00:46:18;;;;;;;6.57;3.20;;;;;;;;;;5091089;28;20281;-80
2023/11/28 00:48:47;;;;;;;5.80;3.13;;;;;;;;;;5091259;28;20225;-79
2023/11/28 00:51:14;;;;;;;3.70;2.87;;;;;;;;;;5091049;28;20247;-80
2023/11/28 00:53:42;;;;;;;4.07;2.87;;;;;;;;;;5090938;28;20225;-80
2023/11/28 00:56:10;;;;;;;4.17;2.73;;;;;;;;;;5091087;28;20230;-80
2023/11/28 00:58:37;;;;;;;3.00;2.70;;;;;;;;;;5091119;28;20232;-80
2023/11/28 01:01:04;;;;;;;6.13;3.40;;;;;;;;;;5091404;28;20329;-80
2023/11/28 01:03:31;;;;;;;5.57;3.33;;;;;;;;;;5090770;28;20722;-79
2023/11/28 01:06:00;;;;;;;8.90;3.27;;;;;;;;;;5090516;28;20285;-80
2023/11/28 01:08:27;;;;;;;3.80;3.00;;;;;;;;;;5091016;28;20309;-80
2023/11/28 01:10:54;;;;;;;5.43;3.17;;;;;;;;;;5090526;28;20652;-80
2023/11/28 01:13:21;;;;;;;6.00;3.50;;;;;;;;;;5091103;28;20194;-80
2023/11/28 01:15:49;;;;;;;5.63;3.20;;;;;;;;;;5090860;28;20225;-80
2023/11/28 01:18:16;;;;;;;6.27;3.33;;;;;;;;;;5093666;28;20198;-81
2023/11/28 01:20:44;;;;;;;8.07;3.00;;;;;;;;;;5094621;28;20285;-80
2023/11/28 01:23:12;;;;;;;9.10;3.13;;;;;;;;;;5094379;28;20207;-80
2023/11/28 01:25:40;;;;;;;5.33;3.30;;;;;;;;;;5094454;28;20233;-80
2023/11/28 01:28:07;;;;;;;3.97;2.90;;;;;;;;;;5094625;28;20194;-80
2023/11/28 01:30:35;;;;;;;5.10;2.90;;;;;;;;;;5094669;28;20313;-81
2023/11/28 01:33:03;;;;;;;3.53;2.63;;;;;;;;;;5094777;28;20201;-80
2023/11/28 01:35:30;;;;;;;3.73;2.67;;;;;;;;;;5094090;28;20198;-80
2023/11/28 01:37:57;;;;;;;4.80;2.63;;;;;;;;;;5094223;28;20297;-81
2023/11/28 01:40:26;;;;;;;2.90;2.30;;;;;;;;;;5093941;28;20274;-80
2023/11/28 01:42:53;;;;;;;3.77;2.70;;;;;;;;;;5093660;28;20190;-81
2023/11/28 01:45:22;;;;;;;4.53;2.40;;;;;;;;;;5094429;28;20209;-80
2023/11/28 01:47:49;;;;;;;3.13;2.33;;;;;;;;;;5094274;28;20203;-80
2023/11/28 01:50:16;;;;;;;5.23;2.37;;;;;;;;;;5093370;28;20320;-80
2023/11/28 01:52:44;;;;;;;4.33;2.13;;;;;;;;;;5094543;28;20281;-80
2023/11/28 01:55:12;;;;;;;3.60;2.10;;;;;;;;;;5093919;28;20285;-83
2023/11/28 01:57:41;;;;;;;3.53;2.30;;;;;;;;;;5093657;28;20197;-80
2023/11/28 02:00:09;;;;;;;2.93;2.00;;;;;;;;;;5094045;28;20233;-80
2023/11/28 02:02:36;;;;;;;3.07;1.80;;;;;;;;;;5093872;28;20671;-80
2023/11/28 02:05:03;;;;;;;4.70;2.23;;;;;;;;;;5094014;28;20202;-80
2023/11/28 02:07:31;;;;;;;3.73;2.43;;;;;;;;;;5093853;28;20281;-80
2023/11/28 02:09:59;;;;;;;6.17;2.27;;;;;;;;;;5094098;28;20229;-82
2023/11/28 02:12:26;;;;;;;4.77;2.40;;;;;;;;;;5093802;28;20615;-82
2023/11/28 02:14:55;;;;;;;2.50;1.70;;;;;;;;;;5094015;28;20638;-81
2023/11/28 02:17:22;;;;;;;3.17;1.73;;;;;;;;;;5093936;28;20286;-81
2023/11/28 02:19:51;;;;;;;4.73;1.93;;;;;;;;;;5093456;28;20237;-81
2023/11/28 02:22:18;;;;;;;4.13;1.80;;;;;;;;;;5093830;28;20202;-80
2023/11/28 02:24:47;;;;;;;4.80;1.90;;;;;;;;;;5093637;28;20651;-81
2023/11/28 02:27:16;;;;;;;4.40;1.90;;;;;;;;;;5093250;28;20208;-81
2023/11/28 02:29:46;;;;;;;3.63;1.70;;;;;;;;;;5092966;28;20321;-82
2023/11/28 02:32:13;;;;;;;6.27;2.00;;;;;;;;;;5093256;28;20290;-82
2023/11/28 02:34:40;;;;;;;4.50;1.97;;;;;;;;;;5093047;28;20191;-82
2023/11/28 02:37:07;;;;;;;4.53;1.70;;;;;;;;;;5093284;28;20190;-82
2023/11/28 02:39:35;;;;;;;4.43;2.10;;;;;;;;;;5093380;28;20232;-81
2023/11/28 02:42:03;;;;;;;2.97;1.80;;;;;;;;;;5092377;28;20705;-81
2023/11/28 02:44:31;;;;;;;3.93;1.90;;;;;;;;;;5093064;28;20243;-82
2023/11/28 02:46:58;;;;;;;6.77;1.97;;;;;;;;;;5092762;28;20693;-80
2023/11/28 02:49:25;;;;;;;3.23;1.80;;;;;;;;;;5085847;28;20268;-83
2023/11/28 02:51:53;;;;;;;5.47;1.90;;;;;;;;;;5072724;28;20294;-82
2023/11/28 02:54:20;;;;;;;7.10;1.80;;;;;;;;;;5072895;28;20290;-81
2023/11/28 02:56:48;;;;;;;3.47;1.87;;;;;;;;;;5072656;28;20667;-82
2023/11/28 02:59:15;;;;;;;6.33;2.13;;;;;;;;;;5072499;28;20218;-82
2023/11/28 03:01:43;;;;;;;4.63;1.83;;;;;;;;;;5072154;28;20199;-82
2023/11/28 03:04:10;;;;;;;3.87;1.70;;;;;;;;;;5072580;28;20295;-82
2023/11/28 03:06:37;;;;;;;2.63;1.40;;;;;;;;;;5072153;28;20238;-82
2023/11/28 03:09:05;;;;;;;3.93;1.57;;;;;;;;;;5072363;28;20223;-82
2023/11/28 03:11:32;;;;;;;3.30;1.77;;;;;;;;;;5072735;28;20218;-82
2023/11/28 03:13:59;;;;;;;3.00;1.43;;;;;;;;;;5075042;28;20206;-82
2023/11/28 03:16:27;;;;;;;3.53;1.47;;;;;;;;;;5083399;28;20234;-81
2023/11/28 03:18:55;;;;;;;4.67;1.70;;;;;;;;;;5092704;28;20198;-82
2023/11/28 03:21:22;;;;;;;2.70;1.67;;;;;;;;;;5092319;28;20285;-80
2023/11/28 03:23:50;;;;;;;4.07;1.60;;;;;;;;;;5092243;28;20241;-82
2023/11/28 03:26:17;;;;;;;2.40;1.40;;;;;;;;;;5092493;28;20190;-82
2023/11/28 03:28:44;;;;;;;4.57;1.60;;;;;;;;;;5092207;28;20298;-81
2023/11/28 03:31:11;;;;;;;5.60;1.60;;;;;;;;;;5091947;28;20309;-81
2023/11/28 03:33:38;;;;;;;4.77;1.50;;;;;;;;;;5092549;28;20257;-83
2023/11/28 03:36:07;;;;;;;4.63;1.50;;;;;;;;;;5092142;28;20282;-81
2023/11/28 03:38:37;;;;;;;4.90;1.20;;;;;;;;;;5092136;28;20233;-81
2023/11/28 03:41:10;;;;;;;3.23;1.10;;;;;;;;;;5091126;28;20210;-81
2023/11/28 03:43:37;;;;;;;2.07;1.43;;;;;;;;;;5092078;28;20230;-81
2023/11/28 03:46:05;;;;;;;2.60;1.20;;;;;;;;;;5092061;28;20205;-81
2023/11/28 03:48:32;;;;;;;4.33;1.40;;;;;;;;;;5091539;28;20732;-83
2023/11/28 03:50:59;;;;;;;3.43;1.30;;;;;;;;;;5091684;28;20230;-81
2023/11/28 03:53:28;;;;;;;3.63;1.50;;;;;;;;;;5091784;28;20237;-82
2023/11/28 03:55:55;;;;;;;3.93;1.30;;;;;;;;;;5092173;28;20660;-82
2023/11/28 03:58:23;;;;;;;3.83;1.27;;;;;;;;;;5091950;28;20201;-82
2023/11/28 04:00:50;;;;;;;4.57;1.57;;;;;;;;;;5091292;28;20230;-82
2023/11/28 04:03:17;;;;;;;3.93;1.60;;;;;;;;;;5091681;28;20682;-81
2023/11/28 04:05:45;;;;;;;4.80;1.60;;;;;;;;;;5091569;28;20205;-78
2023/11/28 04:08:12;;;;;;;4.50;1.70;;;;;;;;;;5092017;28;20217;-82
2023/11/28 04:10:40;;;;;;;3.30;1.50;;;;;;;;;;5091425;28;20597;-82
2023/11/28 04:13:07;;;;;;;6.30;1.60;;;;;;;;;;5091755;28;20233;-82
2023/11/28 04:15:35;;;;;;;3.20;1.30;;;;;;;;;;5091101;28;20229;-81
2023/11/28 04:18:02;;;;;;;6.67;1.40;;;;;;;;;;5091683;28;20289;-82
2023/11/28 04:20:29;;;;;;;2.47;1.17;;;;;;;;;;5091672;28;20221;-82
2023/11/28 04:22:57;;;;;;;6.37;1.20;;;;;;;;;;5091688;28;20270;-83
2023/11/28 04:25:24;;;;;;;2.60;1.13;;;;;;;;;;5091519;28;20245;-82
2023/11/28 04:27:53;;;;;;;2.20;1.37;;;;;;;;;;5091746;28;20288;-81
2023/11/28 04:30:20;;;;;;;3.80;1.17;;;;;;;;;;5091319;28;20230;-83
2023/11/28 04:32:47;;;;;;;3.83;0.93;;;;;;;;;;5091010;28;20222;-82
2023/11/28 04:35:14;;;;;;;3.57;0.93;;;;;;;;;;5091172;28;20234;-82
2023/11/28 04:37:41;;;;;;;2.93;1.07;;;;;;;;;;5091315;28;20237;-82
2023/11/28 04:40:09;;;;;;;3.93;0.83;;;;;;;;;;5091416;28;20230;-82
2023/11/28 04:42:36;;;;;;;2.97;1.00;;;;;;;;;;5090678;28;20325;-82
2023/11/28 04:45:05;;;;;;;4.53;0.80;;;;;;;;;;5091750;28;20198;-82
2023/11/28 04:47:32;;;;;;;2.97;0.87;;;;;;;;;;5090895;28;20876;-81
2023/11/28 04:50:00;;;;;;;3.10;1.07;;;;;;;;;;5090914;28;20643;-81
2023/11/28 04:52:27;;;;;;;1.97;0.90;;;;;;;;;;5094440;28;20285;-79
2023/11/28 04:54:54;;;;;;;2.73;1.00;;;;;;;;;;5095041;28;20230;-82
2023/11/28 04:57:22;;;;;;;6.37;1.13;;;;;;;;;;5095009;28;20273;-82
2023/11/28 04:59:49;;;;;;;3.03;1.00;;;;;;;;;;5095063;28;20310;-82
2023/11/28 05:02:17;;;;;;;4.73;1.00;;;;;;;;;;5095015;28;20203;-82
2023/11/28 05:04:45;;;;;;;2.60;1.10;;;;;;;;;;5095141;28;20293;-82
2023/11/28 05:07:13;;;;;;;5.60;0.90;;;;;;;;;;5095060;28;20285;-82
2023/11/28 05:09:40;;;;;;;4.17;1.13;;;;;;;;;;5095070;28;20229;-81
2023/11/28 05:12:09;;;;;;;5.07;1.30;;;;;;;;;;5094793;28;20731;-83
2023/11/28 05:14:36;;;;;;;3.03;0.90;;;;;;;;;;5094708;28;20195;-82
2023/11/28 05:17:05;;;;;;;2.20;1.30;;;;;;;;;;5095239;28;20199;-82
2023/11/28 05:19:34;;;;;;;2.40;0.90;;;;;;;;;;5094984;28;20202;-82
2023/11/28 05:22:01;;;;;;;2.73;0.80;;;;;;;;;;5094306;28;20941;-81
2023/11/28 05:24:28;;;;;;;4.87;1.17;;;;;;;;;;5094731;28;20658;-81
2023/11/28 05:26:56;;;;;;;3.60;1.20;;;;;;;;;;5094573;28;20226;-81
2023/11/28 05:29:25;;;;;;;2.60;1.10;;;;;;;;;;5094555;28;20194;-81
2023/11/28 05:31:52;;;;;;;3.23;1.00;;;;;;;;;;5094245;28;20198;-81
2023/11/28 05:34:19;;;;;;;3.57;1.30;;;;;;;;;;5094219;28;20286;-82
2023/11/28 05:36:48;;;;;;;2.30;1.17;;;;;;;;;;5094598;28;20226;-81
2023/11/28 05:39:15;;;;;;;3.17;1.10;;;;;;;;;;5094689;28;20202;-81
2023/11/28 05:41:42;;;;;;;9.17;3.10;;;;;;;;;;5093753;28;20198;-82
2023/11/28 05:44:09;;;;;;;7.40;2.30;;;;;;;;;;5094345;28;20191;-81
2023/11/28 05:46:36;;;;;;;4.13;1.60;;;;;;;;;;5093990;28;20255;-80
2023/11/28 05:49:03;;;;;;;4.13;1.20;;;;;;;;;;5094498;28;20730;-80
2023/11/28 05:51:31;;;;;;;4.87;1.13;;;;;;;;;;5093968;28;20578;-81
2023/11/28 05:54:00;;;;;;;3.07;1.30;;;;;;;;;;5094204;28;20195;-80
2023/11/28 05:56:27;;;;;;;3.50;1.33;;;;;;;;;;5093537;28;20757;-80
2023/11/28 05:58:54;;;;;;;5.80;1.40;;;;;;;;;;5094261;28;20590;-82
2023/11/28 06:01:25;;;;;;;5.97;1.37;;;;;;;;;;5093934;28;20334;-80
2023/11/28 06:03:52;;;;;;;2.80;1.30;;;;;;;;;;5086999;28;20293;-81
2023/11/28 06:06:19;;;;;;;2.33;1.10;;;;;;;;;;5087155;28;20555;-79
2023/11/28 06:08:47;;;;;;;3.10;1.37;;;;;;;;;;5093989;28;20666;-81
2023/11/28 06:11:15;;;;;;;5.53;1.37;;;;;;;;;;5093066;28;20241;-80
2023/11/28 06:13:43;;;;;;;3.50;1.40;;;;;;;;;;5094196;28;20226;-80
2023/11/28 06:16:10;;;;;;;3.20;1.77;;;;;;;;;;5093765;28;20194;-81
2023/11/28 06:18:37;;;;;;;5.90;1.80;;;;;;;;;;5093755;28;20198;-80
2023/11/28 06:21:08;;;;;;;7.27;2.87;;;;;;;;;;5093953;28;20201;-80
2023/11/28 06:23:35;;;;;;;7.57;3.87;;;;;;;;;;5093620;28;20627;-79
2023/11/28 06:26:02;;;;;;;11.77;5.23;;;;;;;;;;5090913;28;20199;-81
2023/11/28 06:28:30;;;;;;;9.57;5.03;;;;;;;;;;5072909;28;20190;-79
2023/11/28 06:30:58;;;;;;;9.77;5.00;;;;;;;;;;5073061;28;20733;-79
2023/11/28 06:33:26;;;;;;;9.63;5.80;;;;;;;;;;5088035;28;20294;-79
2023/11/28 06:35:53;;;;;;;6.40;4.37;;;;;;;;;;5092816;28;20281;-79
2023/11/28 06:38:20;;;;;;;5.53;2.70;;;;;;;;;;5092725;28;20215;-78
2023/11/28 06:40:47;;;;;;;5.70;3.00;;;;;;;;;;5093039;28;20637;-79
2023/11/28 06:43:14;;;;;;;6.80;2.90;;;;;;;;;;5086833;28;20648;-79
2023/11/28 06:45:43;;;;;;;4.67;2.57;;;;;;;;;;5084112;28;20670;-80
2023/11/28 06:48:10;;;;;;;5.37;2.87;;;;;;;;;;5087425;28;20278;-79
2023/11/28 06:50:37;;;;;;;4.73;2.53;;;;;;;;;;5083385;28;20313;-80
2023/11/28 06:53:04;;;;;;;5.30;2.60;;;;;;;;;;5081442;28;20207;-80
2023/11/28 06:55:32;;;;;;;6.30;3.10;;;;;;;;;;5072829;28;20237;-80
2023/11/28 06:57:59;;;;;;;6.63;3.17;;;;;;;;;;5072979;28;20230;-80
2023/11/28 07:00:26;;;;;;;5.73;2.73;;;;;;;;;;5072430;28;20324;-80
2023/11/28 07:02:55;;;;;;;6.37;3.00;;;;;;;;;;5072564;28;20202;-80
2023/11/28 07:05:22;;;;;;;4.43;3.00;;;;;;;;;;5073048;28;20205;-80
2023/11/28 07:07:49;;;;;;;5.43;3.20;;;;;;;;;;5072407;28;20282;-80
2023/11/28 07:10:16;;;;;;;10.70;6.27;;;;;;;;;;5072534;28;20282;-80
2023/11/28 07:12:44;;;;;;;10.60;6.90;;;;;;;;;;5072533;28;20296;-80
2023/11/28 07:15:13;;;;;;;22.50;8.37;;;;;;;;;;5072776;28;20212;-81
2023/11/28 07:17:40;;;;;;;18.83;7.60;;;;;;;;;;5072371;28;20198;-81
2023/11/28 07:20:09;;;;;;;13.67;6.07;;;;;;;;;;5072679;28;20250;-80
2023/11/28 07:22:37;;;;;;;13.53;5.70;;;;;;;;;;5071950;28;20197;-80
2023/11/28 07:25:04;;;;;;;9.47;5.87;;;;;;;;;;5085243;28;20209;-79
2023/11/28 07:27:31;;;;;;;8.23;5.50;;;;;;;;;;4736948;28;9999845;-80
2023/11/28 07:29:58;;;;;;;12.10;5.83;;;;;;;;;;5089105;28;20199;-79
2023/11/28 07:32:26;;;;;;;10.63;6.13;;;;;;;;;;5087916;28;20317;-80
2023/11/28 07:34:53;;;;;;;10.30;6.63;;;;;;;;;;5089352;28;20685;-79
2023/11/28 07:37:21;;;;;;;11.53;7.43;;;;;;;;;;5088062;28;20292;-81
2023/11/28 07:39:48;;;;;;;10.63;6.47;;;;;;;;;;5090607;28;20376;-79
2023/11/28 07:42:16;;;;;;;10.97;6.97;;;;;;;;;;5079978;28;20229;-80
2023/11/28 07:44:44;;;;;;;10.03;6.57;;;;;;;;;;5092872;28;20195;-79
2023/11/28 07:47:11;;;;;;;8.67;5.80;;;;;;;;;;5088795;28;20256;-80
2023/11/28 07:49:38;;;;;;;8.70;5.70;;;;;;;;;;5086254;28;20205;-80
2023/11/28 07:52:06;;;;;;;8.23;5.23;;;;;;;;;;5089860;28;20232;-80
2023/11/28 07:54:35;;;;;;;7.20;4.83;;;;;;;;;;5077074;28;20227;-80
2023/11/28 07:57:02;;;;;;;7.17;4.53;;;;;;;;;;5091508;28;20664;-80
2023/11/28 07:59:30;;;;;;;7.70;4.50;;;;;;;;;;5089800;28;20728;-79
2023/11/28 08:01:57;;;;;;;6.60;4.17;;;;;;;;;;5091888;28;20203;-80
2023/11/28 08:04:25;;;;;;;9.40;4.17;;;;;;;;;;5072151;28;20289;-80
2023/11/28 08:06:52;;;;;;;5.83;3.73;;;;;;;;;;5071146;28;20278;-80
2023/11/28 08:09:19;;;;;;;5.53;3.70;;;;;;;;;;5083721;28;20244;-80
2023/11/28 08:11:51;;;;;;;7.37;4.00;;;;;;;;;;5091495;28;20336;-80
2023/11/28 08:14:18;;;;;;;4.80;4.13;;;;;;;;;;5086832;28;20203;-80
2023/11/28 08:16:45;;;;;;;5.43;4.03;;;;;;;;;;5091146;28;20285;-81
2023/11/28 08:19:12;;;;;;;9.23;4.07;;;;;;;;;;5074148;28;20199;-79
2023/11/28 08:21:40;;;;;;;5.03;3.60;;;;;;;;;;5070896;28;20199;-80
2023/11/28 08:24:07;;;;;;;5.87;3.90;;;;;;;;;;5076712;28;20226;-81
2023/11/28 08:26:34;;;;;;;6.30;4.17;;;;;;;;;;5089705;28;20195;-81
2023/11/28 08:29:03;;;;;;;10.23;6.13;;;;;;;;;;5088596;28;20194;-81
2023/11/28 08:31:30;;;;;;;9.17;4.73;;;;;;;;;;5088936;28;20222;-80
2023/11/28 08:33:57;;;;;;;6.50;3.80;;;;;;;;;;5077455;28;20226;-78
2023/11/28 08:36:25;;;;;;;5.77;3.30;;;;;;;;;;5089671;28;20293;-79
2023/11/28 08:38:52;;;;;;;5.57;2.80;;;;;;;;;;5078595;28;20285;-80
2023/11/28 08:41:20;;;;;;;4.68;2.70;;;;;;;;;;5074437;28;20301;-81
2023/11/28 08:43:47;;;;;;;5.28;2.90;;;;;;;;;;5088011;28;20191;-81
2023/11/28 08:46:17;;;;;;;4.35;3.10;;;;;;;;;;5076808;28;20291;-81
2023/11/28 08:48:44;;;;;;;5.43;3.58;;;;;;;;;;5076471;28;20195;-81
2023/11/28 08:51:11;;;;;;;6.57;3.60;;;;;;;;;;5086341;28;20272;-79
2023/11/28 08:53:38;;;;;;;6.68;3.40;;;;;;;;;;5088534;28;20285;-82
2023/11/28 08:56:06;;;;;;;5.28;2.35;;;;;;;;;;5088815;28;20226;-81
2023/11/28 08:58:33;;;;;;;3.17;2.42;;;;;;;;;;5089082;28;20222;-80
2023/11/28 09:01:00;;;;;;;3.67;2.20;;;;;;;;;;5090989;28;20321;-80
2023/11/28 09:03:28;;;;;;;6.63;4.05;;;;;;;;;;5090870;28;20233;-81
2023/11/28 09:05:56;;;;;;;4.97;2.78;;;;;;;;;;5091151;28;20331;-79
2023/11/28 09:08:24;;;;;;;6.05;2.70;;;;;;;;;;5091451;28;20290;-80
2023/11/28 09:10:51;;;;;;;4.95;3.20;;;;;;;;;;5091735;28;20213;-80
2023/11/28 09:13:19;;;;;;;5.00;3.88;;;;;;;;;;5091207;28;20274;-79
2023/11/28 09:15:47;;;;;;;10.43;4.90;;;;;;;;;;5091467;28;20203;-80
2023/11/28 09:18:14;;;;;;;6.15;3.67;;;;;;;;;;5091007;28;20198;-80
2023/11/28 09:20:42;;;;;;;6.20;3.80;;;;;;;;;;5091474;28;20236;-79
2023/11/28 09:23:10;;;;;;;4.95;2.90;;;;;;;;;;5091553;28;20202;-81
2023/11/28 09:25:37;;;;;;;11.77;5.93;;;;;;;;;;5091090;28;20249;-80
2023/11/28 09:28:05;;;;;;;4.75;2.80;;;;;;;;;;5090843;28;20195;-81
2023/11/28 09:30:32;;;;;;;5.60;3.13;;;;;;;;;;5091101;28;20240;-80
2023/11/28 09:33:00;;;;;;;4.47;2.80;;;;;;;;;;5091098;28;20226;-79
2023/11/28 09:35:27;;;;;;;4.82;2.75;;;;;;;;;;5091125;28;20320;-80
2023/11/28 09:37:55;;;;;;;3.95;3.03;;;;;;;;;;5091587;28;20289;-80
2023/11/28 09:40:23;;;;;;;7.35;3.38;;;;;;;;;;5094861;28;20202;-80
2023/11/28 09:42:53;;;;;;;4.68;2.90;;;;;;;;;;5094835;28;20277;-80
2023/11/28 09:45:20;;;;;;;6.85;3.38;;;;;;;;;;5094787;28;20281;-79
2023/11/28 09:47:49;;;;;;;6.15;3.15;;;;;;;;;;5094073;28;20666;-80
2023/11/28 09:50:16;;;;;;;5.10;3.13;;;;;;;;;;5095129;28;20302;-79
2023/11/28 09:52:43;;;;;;;5.80;3.20;;;;;;;;;;5094614;28;20249;-80
2023/11/28 09:55:12;;;;;;;7.32;3.00;;;;;;;;;;5094495;28;20236;-80
2023/11/28 09:57:41;;;;;;;6.07;3.15;;;;;;;;;;5094457;28;20253;-80
2023/11/28 10:00:11;;;;;;;5.75;2.90;;;;;;;;;;5094355;28;20236;-79
2023/11/28 10:02:38;;;;;;;8.05;2.72;;;;;;;;;;5094479;28;20206;-79
2023/11/28 10:05:08;;;;;;;8.10;2.85;;;;;;;;;;5093891;28;20199;-80
2023/11/28 10:07:35;;;;;;;6.40;2.72;;;;;;;;;;5094412;28;20572;-80
2023/11/28 10:10:04;;;;;;;5.40;2.67;;;;;;;;;;5094186;28;20294;-80
2023/11/28 10:12:33;;;;;;;6.07;2.35;;;;;;;;;;5093774;28;20713;-82
2023/11/28 10:15:02;;;;;;;7.70;2.85;;;;;;;;;;5094067;28;20241;-80
2023/11/28 10:17:29;;;;;;;5.68;2.50;;;;;;;;;;5093783;28;20198;-80
2023/11/28 10:19:57;;;;;;;4.45;2.30;;;;;;;;;;5094627;28;20195;-80
2023/11/28 10:22:24;;;;;;;6.97;2.70;;;;;;;;;;5093822;28;20282;-80
2023/11/28 10:24:55;;;;;;;3.70;2.38;;;;;;;;;;5075753;28;20194;-79
2023/11/28 10:27:22;;;;;;;5.40;2.50;;;;;;;;;;5094078;28;20199;-80
2023/11/28 10:29:53;;;;;;;3.67;2.30;;;;;;;;;;5093772;28;20226;-80
2023/11/28 10:32:21;;;;;;;5.22;2.60;;;;;;;;;;5093384;28;20226;-80
2023/11/28 10:34:56;;;;;;;4.90;2.38;;;;;;;;;;5094175;28;20229;-80
2023/11/28 10:37:23;;;;;;;6.75;2.70;;;;;;;;;;5093940;28;20226;-80
2023/11/28 10:39:53;;;;;;;8.52;2.70;;;;;;;;;;5093642;28;20281;-80
2023/11/28 10:42:21;;;;;;;3.45;2.20;;;;;;;;;;5093476;28;20201;-80
2023/11/28 10:44:50;;;;;;;5.22;2.60;;;;;;;;;;5093448;28;20236;-79
2023/11/28 10:47:19;;;;;;;4.27;2.70;;;;;;;;;;5093233;28;20334;-80
2023/11/28 10:49:46;;;;;;;5.10;2.70;;;;;;;;;;5092844;28;20206;-80
2023/11/28 10:52:19;;;;;;;4.75;2.53;;;;;;;;;;5093364;28;20226;-80
2023/11/28 10:54:53;;;;;;;4.93;2.35;;;;;;;;;;5092998;28;20252;-79
2023/11/28 10:57:20;;;;;;;4.28;2.25;;;;;;;;;;5093222;28;20217;-80
2023/11/28 10:59:48;;;;;;;6.28;2.40;;;;;;;;;;5092740;28;20593;-80
2023/11/28 11:02:17;;;;;;;4.38;2.50;;;;;;;;;;5093179;28;20290;-80
2023/11/28 11:04:47;;;;;;;5.32;2.78;;;;;;;;;;5092869;28;20220;-81
2023/11/28 11:07:14;;;;;;;4.18;2.50;;;;;;;;;;5093017;28;20198;-79
2023/11/28 11:09:42;;;;;;;3.35;2.20;;;;;;;;;;5092965;28;20285;-80
2023/11/28 11:12:09;;;;;;;4.78;2.17;;;;;;;;;;5093231;28;20313;-80
2023/11/28 11:14:42;;;;;;;3.55;2.25;;;;;;;;;;5093034;28;20234;-80
2023/11/28 11:17:12;;;;;;;4.50;2.40;;;;;;;;;;5092979;28;20198;-80
2023/11/28 11:19:42;;;;;;;4.90;2.22;;;;;;;;;;5092914;28;20301;-80
2023/11/28 11:22:09;;;;;;;5.28;1.95;;;;;;;;;;5092782;28;20689;-82
2023/11/28 11:24:37;;;;;;;5.10;2.10;;;;;;;;;;5092862;28;20198;-82
2023/11/28 11:27:05;;;;;;;4.28;2.10;;;;;;;;;;5092687;28;20610;-82
2023/11/28 11:29:38;;;;;;;4.60;2.40;;;;;;;;;;5092063;28;20201;-82
2023/11/28 11:32:08;;;;;;;3.03;1.80;;;;;;;;;;5093030;28;20237;-82
2023/11/28 11:34:36;;;;;;;4.88;2.28;;;;;;;;;;5092042;28;20206;-82
2023/11/28 11:37:09;;;;;;;2.90;2.20;;;;;;;;;;5092383;28;20247;-81
2023/11/28 11:39:36;;;;;;;4.13;2.30;;;;;;;;;;5092216;28;20293;-82
2023/11/28 11:42:04;;;;;;;3.28;1.95;;;;;;;;;;5092862;28;20251;-82
2023/11/28 11:44:31;;;;;;;3.00;1.80;;;;;;;;;;5092060;28;20237;-82
2023/11/28 11:47:03;;;;;;;3.72;2.20;;;;;;;;;;5092253;28;20281;-82
2023/11/28 11:49:30;;;;;;;4.20;2.00;;;;;;;;;;5092534;28;20198;-82
2023/11/28 11:51:57;;;;;;;3.63;2.20;;;;;;;;;;5092322;28;20229;-82
2023/11/28 11:54:26;;;;;;;2.92;1.92;;;;;;;;;;5092253;28;20233;-81
2023/11/28 11:56:53;;;;;;;4.50;2.20;;;;;;;;;;5092135;28;20267;-82
2023/11/28 11:59:23;;;;;;;2.88;2.33;;;;;;;;;;5091410;28;20649;-82
2023/11/28 12:01:52;;;;;;;3.38;1.92;;;;;;;;;;5091085;28;20715;-82
2023/11/28 12:04:19;;;;;;;3.22;1.92;;;;;;;;;;5092245;28;20289;-82
2023/11/28 12:06:47;;;;;;;5.25;2.20;;;;;;;;;;5092469;28;20633;-82
2023/11/28 12:09:14;;;;;;;2.83;1.73;;;;;;;;;;5092012;28;20661;-82
2023/11/28 12:11:42;;;;;;;3.90;2.03;;;;;;;;;;5092065;28;20293;-83
2023/11/28 12:14:09;;;;;;;2.95;1.33;;;;;;;;;;5091625;28;20285;-81
2023/11/28 12:16:45;;;;;;;3.33;1.50;;;;;;;;;;5092190;28;20230;-82
2023/11/28 12:19:12;;;;;;;2.13;1.30;;;;;;;;;;5091576;28;20206;-83
2023/11/28 12:21:39;;;;;;;7.73;1.57;;;;;;;;;;5091556;28;20209;-82
2023/11/28 12:24:07;;;;;;;1.93;1.47;;;;;;;;;;5091998;28;20281;-82
2023/11/28 12:26:34;;;;;;;3.57;1.50;;;;;;;;;;5091692;28;20681;-82
2023/11/28 12:29:03;;;;;;;2.23;1.47;;;;;;;;;;5091795;28;20576;-81
2023/11/28 12:31:30;;;;;;;3.23;1.60;;;;;;;;;;5091568;28;20194;-80
2023/11/28 12:33:58;;;;;;;2.17;1.70;;;;;;;;;;5091863;28;20226;-79
2023/11/28 12:36:26;;;;;;;4.33;1.67;;;;;;;;;;5091861;28;20278;-80
2023/11/28 12:38:53;;;;;;;2.80;1.30;;;;;;;;;;5091598;28;20202;-80
2023/11/28 12:41:20;;;;;;;2.65;1.17;;;;;;;;;;5091119;28;20201;-81
2023/11/28 12:43:54;;;;;;;2.78;1.42;;;;;;;;;;5091796;28;20770;-80
2023/11/28 12:46:22;;;;;;;4.03;1.45;;;;;;;;;;5091739;28;20198;-80
2023/11/28 12:48:50;;;;;;;2.85;1.60;;;;;;;;;;5091688;28;20305;-80
2023/11/28 12:51:17;;;;;;;4.03;1.30;;;;;;;;;;5091547;28;20194;-79
2023/11/28 12:53:47;;;;;;;1.93;1.20;;;;;;;;;;5091583;28;20264;-80
2023/11/28 12:56:14;;;;;;;2.03;1.30;;;;;;;;;;5091094;28;20281;-82
2023/11/28 12:58:41;;;;;;;4.23;1.67;;;;;;;;;;5091589;28;20230;-82
2023/11/28 13:01:08;;;;;;;4.53;1.30;;;;;;;;;;5090753;28;20688;-81
2023/11/28 13:03:40;;;;;;;3.83;1.30;;;;;;;;;;5091971;28;20195;-82
2023/11/28 13:06:08;;;;;;;4.13;1.40;;;;;;;;;;5091413;28;20194;-82
2023/11/28 13:08:35;;;;;;;4.13;1.77;;;;;;;;;;5091534;28;20294;-82
2023/11/28 13:11:03;;;;;;;3.53;1.50;;;;;;;;;;5091305;28;20221;-82
2023/11/28 13:13:31;;;;;;;2.70;1.40;;;;;;;;;;5094738;28;20732;-82
2023/11/28 13:15:58;;;;;;;5.50;1.70;;;;;;;;;;5095264;28;20233;-82
2023/11/28 13:18:25;;;;;;;3.67;1.60;;;;;;;;;;5095055;28;20205;-79
2023/11/28 13:20:53;;;;;;;2.30;1.40;;;;;;;;;;5095258;28;20285;-80
2023/11/28 13:23:21;;;;;;;2.83;1.20;;;;;;;;;;5095681;28;20729;-80
2023/11/28 13:25:48;;;;;;;4.43;1.70;;;;;;;;;;5094815;28;20214;-80
2023/11/28 13:28:15;;;;;;;4.10;1.70;;;;;;;;;;5095117;28;20277;-80
2023/11/28 13:30:43;;;;;;;1.60;1.33;;;;;;;;;;5095354;28;20198;-81
2023/11/28 13:33:11;;;;;;;3.43;1.40;;;;;;;;;;5094638;28;21105;-81
2023/11/28 13:35:39;;;;;;;2.23;1.20;;;;;;;;;;5094727;28;20733;-79
2023/11/28 13:38:08;;;;;;;4.27;1.47;;;;;;;;;;5094868;28;20671;-80
2023/11/28 13:40:35;;;;;;;2.50;1.10;;;;;;;;;;5094493;28;20289;-82
2023/11/28 13:43:04;;;;;;;5.07;1.80;;;;;;;;;;5094655;28;20571;-82
2023/11/28 13:45:33;;;;;;;4.23;1.50;;;;;;;;;;5094681;28;20195;-82
2023/11/28 13:48:01;;;;;;;4.70;1.60;;;;;;;;;;5094842;28;20195;-83
2023/11/28 13:50:28;;;;;;;5.23;2.10;;;;;;;;;;5094712;28;20198;-82
2023/11/28 13:52:55;;;;;;;7.00;2.33;;;;;;;;;;5094606;28;20778;-81
2023/11/28 13:55:24;;;;;;;7.33;2.90;;;;;;;;;;5094015;28;20653;-81
2023/11/28 13:57:51;;;;;;;7.60;3.23;;;;;;;;;;5094700;28;20289;-81
2023/11/28 14:00:19;;;;;;;5.40;2.40;;;;;;;;;;5094547;28;20321;-82
2023/11/28 14:02:47;;;;;;;4.97;2.30;;;;;;;;;;5093863;28;20552;-82
2023/11/28 14:05:16;;;;;;;6.20;2.20;;;;;;;;;;5094083;28;20734;-82
2023/11/28 14:07:43;;;;;;;4.43;1.90;;;;;;;;;;5094548;28;20226;-82
2023/11/28 14:10:10;;;;;;;2.90;1.40;;;;;;;;;;5093945;28;20281;-78
2023/11/28 14:12:39;;;;;;;3.07;1.70;;;;;;;;;;5094149;28;20222;-82
2023/11/28 14:15:07;;;;;;;3.10;1.37;;;;;;;;;;5094195;28;20269;-82
2023/11/28 14:17:34;;;;;;;3.27;1.27;;;;;;;;;;5094314;28;20281;-82
2023/11/28 14:20:03;;;;;;;3.27;1.50;;;;;;;;;;5094063;28;20285;-82
2023/11/28 14:22:30;;;;;;;3.60;1.50;;;;;;;;;;5093571;28;20677;-82
2023/11/28 14:24:57;;;;;;;2.47;1.30;;;;;;;;;;5093415;28;20222;-81
2023/11/28 14:27:24;;;;;;;2.30;1.30;;;;;;;;;;5093983;28;20234;-82
2023/11/28 14:29:53;;;;;;;3.20;1.43;;;;;;;;;;5093876;28;20745;-82
2023/11/28 14:32:20;;;;;;;2.90;1.60;;;;;;;;;;5093485;28;20190;-82
2023/11/28 14:34:47;;;;;;;2.40;1.47;;;;;;;;;;5093799;28;20195;-81
2023/11/28 14:37:15;;;;;;;2.37;1.23;;;;;;;;;;5093376;28;20293;-82
2023/11/28 14:39:45;;;;;;;4.30;1.23;;;;;;;;;;5093345;28;20585;-80
2023/11/28 14:42:12;;;;;;;4.20;1.50;;;;;;;;;;5093703;28;20195;-82
2023/11/28 14:44:39;;;;;;;3.93;1.50;;;;;;;;;;5093737;28;20244;-82
2023/11/28 14:47:08;;;;;;;5.00;1.40;;;;;;;;;;5093595;28;20201;-82